Terminal Aerodrome Forecast
Issued by NWS Wichita, KS

Home | Current Version | Previous Version | Graphics & Text | Print | Product List | Glossary On
Versions: 1 2 3 4 5 6 7 8 9 10 11 12 13 14 15 16 17 18 19 20 21 22 23 24 25 26 27
000
FTUS43 KICT 222121 AAB
TAFICT
TAF AMD
KICT 222121Z 2221/2318 14011KT P6SM SCT015 BKN029 OVC040
     FM230100 13011KT 5SM -DZ BR OVC009
     FM231500 15014KT 5SM -SHRA VCTS SCT007 OVC010CB=

USA.gov is the U.S. government's official web portal to all federal, state and local government web resources and services.